CheckWX is a tool to help pilots better visualize weather data.  It is not intended as a substitute for an official pre-flight weather briefing.

20:37:39 UTC

KOWD METAR
Norwood Memorial Airport
Norwood, Massachusetts, USA
Current

45 mins ago

KOWD 081953Z 07006KT 10SM OVC065 12/M02 A2958 RMK AO2 SLP015 T01171017
Observed
Apr-8 @ 19:53 UTC
Wind
  • 070° at 6 KTS
Visibility
Flight Rules
VFR
Cloud Levels
  • Overcast at 6,500' AGL
Temperature
12°C / 54°F
Dewpoint
-2°C / 28°F
Humidity
38%
Altimeter
29.58" Hg
Pressure
1001.72 hPa
Previous

2 hours ago

KOWD 081853Z 03007KT 020V080 10SM FEW022 SCT080 12/04 A2957 RMK AO2 SLP012 T01170044
Observed
Apr-8 @ 18:53 UTC
Wind
  • 030° at 7 KTS
Visibility
Flight Rules
VFR
Cloud Levels
  • Few at 2,200' AGL
  • Scattered at 8,000' AGL
Temperature
12°C / 54°F
Dewpoint
C / 39°F
Humidity
58%
Altimeter
29.57" Hg
Pressure
1001.32 hPa
Previous

3 hours ago

KOWD 081753Z 05009KT 10SM OVC060 11/04 A2957 RMK AO2 SLP013 60003 T01060044 10111 20078 53001
Observed
Apr-8 @ 17:53 UTC
Wind
  • 050° at 9 KTS
Visibility
Flight Rules
VFR
Cloud Levels
  • Overcast at 6,000' AGL
Temperature
11°C / 52°F
Dewpoint
C / 39°F
Humidity
62%
Altimeter
29.57" Hg
Pressure
1001.32 hPa